Time;durP1;ratioP1;P1;durP2;ratioP2;P2;SDS_P1;SDS_P2;PMS_P1;PMS_P2;Temp;Humidity;BMP_temperature;BMP_pressure;BME280_temperature;BME280_humidity;BME280_pressure;Samples;Min_cycle;Max_cycle;Signal;HPM_P1;HPM_P2
2023/06/05 00:00:48;;;;;;;5.90;3.83;;;;;;;;;;4957081;28;93029;-85
2023/06/05 00:03:17;;;;;;;11.02;3.42;;;;;;;;;;4948925;28;92560;-84
2023/06/05 00:05:45;;;;;;;5.15;3.53;;;;;;;;;;4959723;28;93609;-85
2023/06/05 00:08:12;;;;;;;9.13;4.93;;;;;;;;;;4953647;28;93562;-84
2023/06/05 00:10:38;;;;;;;6.57;4.15;;;;;;;;;;4959200;28;93909;-85
2023/06/05 00:13:05;;;;;;;9.63;4.35;;;;;;;;;;4958420;28;94321;-84
2023/06/05 00:15:35;;;;;;;8.07;4.40;;;;;;;;;;4950105;28;92694;-85
2023/06/05 00:18:03;;;;;;;9.07;4.15;;;;;;;;;;4949958;28;94801;-84
2023/06/05 00:20:30;;;;;;;5.75;3.97;;;;;;;;;;4944232;28;96057;-84
2023/06/05 00:22:57;;;;;;;8.38;4.18;;;;;;;;;;4955644;28;96258;-84
2023/06/05 00:25:23;;;;;;;7.30;3.78;;;;;;;;;;4957988;28;92501;-85
2023/06/05 00:27:50;;;;;;;10.90;4.65;;;;;;;;;;4956810;28;93460;-85
2023/06/05 00:30:18;;;;;;;11.02;4.20;;;;;;;;;;4942851;28;94831;-85
2023/06/05 00:32:44;;;;;;;10.25;4.82;;;;;;;;;;4964829;28;92335;-85
2023/06/05 00:35:11;;;;;;;11.55;4.63;;;;;;;;;;4956845;28;93419;-85
2023/06/05 00:37:38;;;;;;;5.93;4.22;;;;;;;;;;4966850;28;93131;-85
2023/06/05 00:40:05;;;;;;;7.10;3.88;;;;;;;;;;4949438;28;92891;-85
2023/06/05 00:42:32;;;;;;;5.75;4.38;;;;;;;;;;4958718;28;92186;-85
2023/06/05 00:44:59;;;;;;;7.05;4.10;;;;;;;;;;4959142;28;94686;-85
2023/06/05 00:47:25;;;;;;;7.95;4.35;;;;;;;;;;4961232;28;94733;-84
2023/06/05 00:49:52;;;;;;;9.65;4.50;;;;;;;;;;4960205;28;95873;-84
2023/06/05 00:52:19;;;;;;;7.88;4.45;;;;;;;;;;4960668;28;92376;-85
2023/06/05 00:54:46;;;;;;;8.27;4.72;;;;;;;;;;4959200;28;94387;-85
2023/06/05 00:57:12;;;;;;;5.43;4.18;;;;;;;;;;4969343;28;94838;-85
2023/06/05 00:59:40;;;;;;;4.88;3.88;;;;;;;;;;4960476;28;92537;-85
2023/06/05 01:02:07;;;;;;;5.03;4.22;;;;;;;;;;4961341;28;95292;-85
2023/06/05 01:04:36;;;;;;;8.18;5.03;;;;;;;;;;4950113;28;93618;-84
2023/06/05 01:07:07;;;;;;;8.43;5.18;;;;;;;;;;4961172;28;92360;-85
2023/06/05 01:09:33;;;;;;;6.00;4.55;;;;;;;;;;4947282;28;93681;-85
2023/06/05 01:12:05;;;;;;;7.40;4.57;;;;;;;;;;4959502;28;97140;-85
2023/06/05 01:14:34;;;;;;;14.27;5.28;;;;;;;;;;4961602;28;94170;-85
2023/06/05 01:17:02;;;;;;;11.48;5.38;;;;;;;;;;4957173;28;94485;-85
2023/06/05 01:19:31;;;;;;;7.50;4.53;;;;;;;;;;4961162;28;95750;-85
2023/06/05 01:21:58;;;;;;;6.28;5.25;;;;;;;;;;4961764;28;94032;-85
2023/06/05 01:24:27;;;;;;;11.85;5.68;;;;;;;;;;4961784;28;92199;-85
2023/06/05 01:27:07;;;;;;;10.65;4.90;;;;;;;;;;4961524;28;94382;-85
2023/06/05 01:29:52;;;;;;;9.40;5.38;;;;;;;;;;4955015;28;94648;-84
2023/06/05 01:32:24;;;;;;;12.55;5.07;;;;;;;;;;4938692;28;94714;-85
2023/06/05 01:34:53;;;;;;;14.68;5.63;;;;;;;;;;4956824;28;92164;-85
2023/06/05 01:37:24;;;;;;;12.15;5.75;;;;;;;;;;4958466;28;94548;-85
2023/06/05 01:39:51;;;;;;;;;;;;;;;;;;4965084;28;94473;-85
2023/06/05 01:42:19;;;;;;;14.15;4.97;;;;;;;;;;4960656;28;93716;-85
2023/06/05 01:44:45;;;;;;;8.32;5.22;;;;;;;;;;4960855;28;93793;-85
2023/06/05 01:47:12;;;;;;;5.97;4.40;;;;;;;;;;4962016;28;94541;-85
2023/06/05 01:49:40;;;;;;;9.20;6.47;;;;;;;;;;4958559;28;92352;-85
2023/06/05 01:52:07;;;;;;;6.18;5.40;;;;;;;;;;4960313;28;94375;-85
2023/06/05 01:54:33;;;;;;;8.65;5.38;;;;;;;;;;4958298;28;94569;-85
2023/06/05 01:57:00;;;;;;;22.73;5.72;;;;;;;;;;4949717;28;94772;-85
2023/06/05 01:59:27;;;;;;;14.30;5.28;;;;;;;;;;4962998;28;92401;-85
2023/06/05 02:01:54;;;;;;;8.45;5.72;;;;;;;;;;4958163;28;94664;-85
2023/06/05 02:04:21;;;;;;;13.00;5.80;;;;;;;;;;4959123;28;95942;-85
2023/06/05 02:06:48;;;;;;;7.00;5.78;;;;;;;;;;4945957;28;96079;-85
2023/06/05 02:09:15;;;;;;;10.50;5.60;;;;;;;;;;4956030;28;92859;-85
2023/06/05 02:11:42;;;;;;;9.23;5.45;;;;;;;;;;4961932;28;94278;-85
2023/06/05 02:14:12;;;;;;;10.63;6.10;;;;;;;;;;4961308;28;92506;-85
2023/06/05 02:16:40;;;;;;;7.35;5.63;;;;;;;;;;4930731;28;95541;-85
2023/06/05 02:19:07;;;;;;;9.15;5.25;;;;;;;;;;4942595;28;93667;-85
2023/06/05 02:21:34;;;;;;;7.97;5.32;;;;;;;;;;4947195;28;94599;-85
2023/06/05 02:24:01;;;;;;;10.40;6.25;;;;;;;;;;4953645;28;95817;-85
2023/06/05 02:26:28;;;;;;;8.57;5.78;;;;;;;;;;4959876;28;94795;-85
2023/06/05 02:28:55;;;;;;;7.80;5.85;;;;;;;;;;4961526;28;98089;-85
2023/06/05 02:31:28;;;;;;;7.78;5.90;;;;;;;;;;4946658;28;95402;-84
2023/06/05 02:33:55;;;;;;;11.05;5.97;;;;;;;;;;4963786;28;92898;-85
2023/06/05 02:36:23;;;;;;;7.47;5.88;;;;;;;;;;4961268;28;93975;-85
2023/06/05 02:38:52;;;;;;;11.95;6.68;;;;;;;;;;4950687;28;94961;-85
2023/06/05 02:41:21;;;;;;;8.07;5.75;;;;;;;;;;4945587;28;94481;-86
2023/06/05 02:43:48;;;;;;;9.88;6.65;;;;;;;;;;4928796;28;95098;-85
2023/06/05 02:46:15;;;;;;;9.30;6.05;;;;;;;;;;4955838;28;92394;-85
2023/06/05 02:48:44;;;;;;;12.23;7.10;;;;;;;;;;4940425;28;93503;-85
2023/06/05 02:51:11;;;;;;;10.25;6.78;;;;;;;;;;4954222;28;97010;-85
2023/06/05 02:53:39;;;;;;;8.63;6.75;;;;;;;;;;4935304;28;95027;-85
2023/06/05 02:56:06;;;;;;;11.68;6.15;;;;;;;;;;4954011;28;94483;-85
2023/06/05 02:58:37;;;;;;;10.35;7.32;;;;;;;;;;4930020;28;95076;-85
2023/06/05 03:01:08;;;;;;;9.38;6.05;;;;;;;;;;4967443;28;92338;-85
2023/06/05 03:03:40;;;;;;;9.05;7.40;;;;;;;;;;4954275;28;95157;-85
2023/06/05 03:06:07;;;;;;;11.38;6.55;;;;;;;;;;4948044;28;92157;-85
2023/06/05 03:08:41;;;;;;;8.02;6.68;;;;;;;;;;4959589;28;92060;-85
2023/06/05 03:11:15;;;;;;;12.10;6.82;;;;;;;;;;4962018;28;94784;-85
2023/06/05 03:13:44;;;;;;;13.35;7.13;;;;;;;;;;4958679;28;94689;-85
2023/06/05 03:16:12;;;;;;;14.73;7.15;;;;;;;;;;4946328;28;94719;-85
2023/06/05 03:18:48;;;;;;;9.75;6.85;;;;;;;;;;4961991;28;92918;-85
2023/06/05 03:21:15;;;;;;;14.82;6.07;;;;;;;;;;4948942;28;94520;-86
2023/06/05 03:23:42;;;;;;;10.43;7.03;;;;;;;;;;4962786;28;92416;-85
2023/06/05 03:26:12;;;;;;;17.30;8.73;;;;;;;;;;4962318;28;93519;-85
2023/06/05 03:28:39;;;;;;;8.60;6.45;;;;;;;;;;4964222;28;94331;-85
2023/06/05 03:31:10;;;;;;;12.48;7.03;;;;;;;;;;4953882;28;94442;-84
2023/06/05 03:33:40;;;;;;;7.10;6.27;;;;;;;;;;4961161;28;92176;-84
2023/06/05 03:36:08;;;;;;;7.88;6.43;;;;;;;;;;4957036;28;92441;-84
2023/06/05 03:38:35;;;;;;;11.63;7.45;;;;;;;;;;4957590;28;94792;-84
2023/06/05 03:41:02;;;;;;;11.50;7.28;;;;;;;;;;4952587;28;94660;-85
2023/06/05 03:43:31;;;;;;;17.45;7.40;;;;;;;;;;4957652;28;97201;-85
2023/06/05 03:45:58;;;;;;;19.25;7.47;;;;;;;;;;4957355;28;96406;-84
2023/06/05 03:48:26;;;;;;;13.70;6.60;;;;;;;;;;4938532;28;95244;-85
2023/06/05 03:50:55;;;;;;;11.30;7.35;;;;;;;;;;4944466;28;93982;-85
2023/06/05 03:53:22;;;;;;;12.27;7.13;;;;;;;;;;4937360;28;95392;-85
2023/06/05 03:55:52;;;;;;;8.50;7.18;;;;;;;;;;4941960;28;95487;-85
2023/06/05 03:58:26;;;;;;;11.27;7.45;;;;;;;;;;4956358;28;94662;-85
2023/06/05 04:00:55;;;;;;;10.35;6.85;;;;;;;;;;4931670;28;95884;-85
2023/06/05 04:03:22;;;;;;;12.98;7.72;;;;;;;;;;4957357;28;94507;-85
2023/06/05 04:05:52;;;;;;;16.63;7.85;;;;;;;;;;4960138;28;97919;-85
2023/06/05 04:08:19;;;;;;;13.93;7.50;;;;;;;;;;4952383;28;94708;-85
2023/06/05 04:10:46;;;;;;;13.63;7.60;;;;;;;;;;4949448;28;94594;-85
2023/06/05 04:13:12;;;;;;;14.55;7.72;;;;;;;;;;4960144;28;92467;-85
2023/06/05 04:15:39;;;;;;;12.95;8.07;;;;;;;;;;4963642;28;93935;-85
2023/06/05 04:18:06;;;;;;;10.07;6.82;;;;;;;;;;4946105;28;95891;-85
2023/06/05 04:20:34;;;;;;;13.38;7.72;;;;;;;;;;4958529;28;94569;-85
2023/06/05 04:23:01;;;;;;;10.45;7.20;;;;;;;;;;4937687;28;95453;-85
2023/06/05 04:25:30;;;;;;;11.63;7.72;;;;;;;;;;4963747;28;92445;-85
2023/06/05 04:27:58;;;;;;;17.55;8.48;;;;;;;;;;4957820;28;94590;-85
2023/06/05 04:30:25;;;;;;;16.60;8.18;;;;;;;;;;4942657;28;95624;-85
2023/06/05 04:32:55;;;;;;;13.63;8.77;;;;;;;;;;4949600;28;93299;-86
2023/06/05 04:35:23;;;;;;;11.68;7.82;;;;;;;;;;4942653;28;94576;-85
2023/06/05 04:37:50;;;;;;;13.93;8.45;;;;;;;;;;4955281;28;95762;-85
2023/06/05 04:40:19;;;;;;;13.20;8.00;;;;;;;;;;4951370;28;95687;-85
2023/06/05 04:42:47;;;;;;;19.83;8.30;;;;;;;;;;4947193;28;94408;-85
2023/06/05 04:45:16;;;;;;;15.48;7.85;;;;;;;;;;4947823;28;94847;-84
2023/06/05 04:47:46;;;;;;;11.68;7.57;;;;;;;;;;4951817;28;92168;-84
2023/06/05 04:50:26;;;;;;;11.00;7.25;;;;;;;;;;4966122;28;93616;-84
2023/06/05 04:52:59;;;;;;;12.50;7.53;;;;;;;;;;4943595;28;95193;-84
2023/06/05 04:55:26;;;;;;;13.80;8.27;;;;;;;;;;4941962;28;95431;-84
2023/06/05 04:58:00;;;;;;;15.13;8.43;;;;;;;;;;4956726;28;94577;-85
2023/06/05 05:00:29;;;;;;;13.18;7.95;;;;;;;;;;4936149;28;95504;-85
2023/06/05 05:02:57;;;;;;;12.10;7.78;;;;;;;;;;4950154;28;95605;-84
2023/06/05 05:05:24;;;;;;;16.05;8.73;;;;;;;;;;4954915;28;94211;-85
2023/06/05 05:07:53;;;;;;;18.85;8.80;;;;;;;;;;4957769;28;94366;-85
2023/06/05 05:10:24;;;;;;;19.40;8.27;;;;;;;;;;4959489;28;93663;-85
2023/06/05 05:12:51;;;;;;;17.10;8.25;;;;;;;;;;4964753;28;91977;-85
2023/06/05 05:15:18;;;;;;;12.52;8.43;;;;;;;;;;4972303;28;94517;-85
2023/06/05 05:17:45;;;;;;;15.88;8.48;;;;;;;;;;4962255;28;94030;-85
2023/06/05 05:20:12;;;;;;;10.65;7.30;;;;;;;;;;4957011;28;94816;-85
2023/06/05 05:22:39;;;;;;;18.60;8.45;;;;;;;;;;4972595;28;95991;-85
2023/06/05 05:25:06;;;;;;;16.92;7.25;;;;;;;;;;4945108;28;94209;-85
2023/06/05 05:27:32;;;;;;;17.90;8.85;;;;;;;;;;4957467;28;94097;-86
2023/06/05 05:29:59;;;;;;;18.95;7.43;;;;;;;;;;4939422;28;93794;-86
2023/06/05 05:32:26;;;;;;;10.18;7.75;;;;;;;;;;4952331;28;94384;-86
2023/06/05 05:34:52;;;;;;;13.57;8.57;;;;;;;;;;4950202;28;92530;-85
2023/06/05 05:37:20;;;;;;;11.25;8.00;;;;;;;;;;4948445;28;94193;-85
2023/06/05 05:39:47;;;;;;;12.20;7.50;;;;;;;;;;4951662;28;94171;-85
2023/06/05 05:42:14;;;;;;;15.15;8.43;;;;;;;;;;4950700;28;94361;-85
2023/06/05 05:44:42;;;;;;;11.48;8.27;;;;;;;;;;4942430;28;94799;-85
2023/06/05 05:47:08;;;;;;;12.93;7.85;;;;;;;;;;4952037;28;92521;-85
2023/06/05 05:49:35;;;;;;;17.23;9.13;;;;;;;;;;4956166;28;94255;-84
2023/06/05 05:52:02;;;;;;;16.27;8.20;;;;;;;;;;4956246;28;92069;-85
2023/06/05 05:54:30;;;;;;;14.90;8.20;;;;;;;;;;4958930;28;95520;-85
2023/06/05 05:56:57;;;;;;;15.02;7.97;;;;;;;;;;4952576;28;94221;-84
2023/06/05 05:59:23;;;;;;;13.40;8.45;;;;;;;;;;4948997;28;93181;-86
2023/06/05 06:01:50;;;;;;;14.82;7.68;;;;;;;;;;4954796;28;91873;-86
2023/06/05 06:04:17;;;;;;;18.77;8.75;;;;;;;;;;4954783;28;94522;-85
2023/06/05 06:06:47;;;;;;;11.63;8.10;;;;;;;;;;4952763;28;92932;-85
2023/06/05 06:09:14;;;;;;;15.90;7.93;;;;;;;;;;4948943;28;94895;-85
2023/06/05 06:11:42;;;;;;;15.60;8.98;;;;;;;;;;4950572;28;94430;-85
2023/06/05 06:14:10;;;;;;;18.33;8.60;;;;;;;;;;4954608;28;94422;-84
2023/06/05 06:16:37;;;;;;;14.65;8.35;;;;;;;;;;4945525;28;92423;-85
2023/06/05 06:19:04;;;;;;;15.02;8.65;;;;;;;;;;4953825;28;94421;-85
2023/06/05 06:21:31;;;;;;;9.05;7.57;;;;;;;;;;4958023;28;92160;-85
2023/06/05 06:23:57;;;;;;;11.60;8.30;;;;;;;;;;4955002;28;93293;-85
2023/06/05 06:26:26;;;;;;;12.98;8.35;;;;;;;;;;4959148;28;92572;-85
2023/06/05 06:28:54;;;;;;;12.23;7.97;;;;;;;;;;4957765;28;92316;-85
2023/06/05 06:31:21;;;;;;;13.48;8.20;;;;;;;;;;4971371;28;96237;-85
2023/06/05 06:33:48;;;;;;;14.07;9.32;;;;;;;;;;4956983;28;94810;-84
2023/06/05 06:36:17;;;;;;;12.45;8.63;;;;;;;;;;4941326;28;95796;-85
2023/06/05 06:38:43;;;;;;;19.27;8.68;;;;;;;;;;4941891;28;93951;-84
2023/06/05 06:41:10;;;;;;;11.38;8.27;;;;;;;;;;4957767;28;94730;-84
2023/06/05 06:43:37;;;;;;;17.80;8.55;;;;;;;;;;4938553;28;94575;-84
2023/06/05 06:46:04;;;;;;;19.52;9.48;;;;;;;;;;4957302;28;93144;-85
2023/06/05 06:48:32;;;;;;;9.45;7.90;;;;;;;;;;4956206;28;93674;-84
2023/06/05 06:50:59;;;;;;;13.20;8.02;;;;;;;;;;4956699;28;91803;-84
2023/06/05 06:53:26;;;;;;;10.32;7.63;;;;;;;;;;4948077;28;92563;-84
2023/06/05 06:55:52;;;;;;;12.80;7.80;;;;;;;;;;4958032;28;94361;-85
2023/06/05 06:58:19;;;;;;;14.10;7.68;;;;;;;;;;4947361;28;94545;-84
2023/06/05 07:00:47;;;;;;;11.63;7.88;;;;;;;;;;4947099;28;94023;-85
2023/06/05 07:03:13;;;;;;;10.02;7.30;;;;;;;;;;4958337;28;92491;-84
2023/06/05 07:05:40;;;;;;;14.13;8.48;;;;;;;;;;4961436;28;93227;-85
2023/06/05 07:08:06;;;;;;;13.15;6.97;;;;;;;;;;4947798;28;93749;-84
2023/06/05 07:10:33;;;;;;;16.20;8.60;;;;;;;;;;4957316;28;92378;-84
2023/06/05 07:13:00;;;;;;;15.40;6.97;;;;;;;;;;4940519;28;92484;-84
2023/06/05 07:15:26;;;;;;;8.32;6.10;;;;;;;;;;4957537;28;94408;-84
2023/06/05 07:17:53;;;;;;;12.18;7.32;;;;;;;;;;4957356;28;92067;-85
2023/06/05 07:20:20;;;;;;;14.35;7.78;;;;;;;;;;4957885;28;93285;-84
2023/06/05 07:22:46;;;;;;;7.45;6.75;;;;;;;;;;4937573;28;94790;-83
2023/06/05 07:25:15;;;;;;;14.02;7.20;;;;;;;;;;4948343;28;92410;-84
2023/06/05 07:27:43;;;;;;;9.68;6.47;;;;;;;;;;4945166;28;92487;-84
2023/06/05 07:30:10;;;;;;;15.45;7.30;;;;;;;;;;4941936;28;93311;-84
2023/06/05 07:32:37;;;;;;;13.65;7.10;;;;;;;;;;4948545;28;92347;-84
2023/06/05 07:35:04;;;;;;;7.30;6.13;;;;;;;;;;4943625;28;92358;-85
2023/06/05 07:37:30;;;;;;;17.00;6.75;;;;;;;;;;4940160;28;93064;-84
2023/06/05 07:39:57;;;;;;;10.68;7.57;;;;;;;;;;4943271;28;94334;-84
2023/06/05 07:42:23;;;;;;;13.23;6.75;;;;;;;;;;4946998;28;92613;-84
2023/06/05 07:44:50;;;;;;;15.70;6.25;;;;;;;;;;4952129;28;94744;-84
2023/06/05 07:47:17;;;;;;;12.20;6.97;;;;;;;;;;4952519;28;94752;-84
2023/06/05 07:49:43;;;;;;;13.60;7.07;;;;;;;;;;4952696;28;95858;-81
2023/06/05 07:52:10;;;;;;;14.38;7.50;;;;;;;;;;4956732;28;92468;-82
2023/06/05 07:54:37;;;;;;;8.43;6.13;;;;;;;;;;4944736;28;92707;-83
2023/06/05 07:57:04;;;;;;;12.60;6.95;;;;;;;;;;4957537;28;94091;-83
2023/06/05 07:59:32;;;;;;;14.45;7.53;;;;;;;;;;4962498;28;92337;-83
2023/06/05 08:01:59;;;;;;;9.80;6.93;;;;;;;;;;4949959;28;92364;-82
2023/06/05 08:04:27;;;;;;;14.65;7.20;;;;;;;;;;4956462;28;93997;-82
2023/06/05 08:06:54;;;;;;;6.72;6.03;;;;;;;;;;4947064;28;93330;-83
2023/06/05 08:09:21;;;;;;;13.82;7.47;;;;;;;;;;4958214;28;92274;-83
2023/06/05 08:11:48;;;;;;;13.25;7.20;;;;;;;;;;4954888;28;94726;-82
2023/06/05 08:14:15;;;;;;;12.30;7.43;;;;;;;;;;4952446;28;94331;-83
2023/06/05 08:16:41;;;;;;;9.38;6.35;;;;;;;;;;4956024;28;92724;-83
2023/06/05 08:19:08;;;;;;;12.85;7.25;;;;;;;;;;4959301;28;94122;-82
2023/06/05 08:21:36;;;;;;;12.27;7.40;;;;;;;;;;4963253;28;92482;-82
2023/06/05 08:24:03;;;;;;;12.65;6.85;;;;;;;;;;4954041;28;92586;-82
2023/06/05 08:26:31;;;;;;;9.45;7.25;;;;;;;;;;4948638;28;92970;-82
2023/06/05 08:28:57;;;;;;;7.30;6.15;;;;;;;;;;4971432;28;94077;-81
2023/06/05 08:31:24;;;;;;;10.15;6.50;;;;;;;;;;4964778;28;92244;-82
2023/06/05 08:33:51;;;;;;;12.82;6.90;;;;;;;;;;4959763;28;92335;-82
2023/06/05 08:36:17;;;;;;;8.23;6.07;;;;;;;;;;4948030;28;95429;-83
2023/06/05 08:38:44;;;;;;;9.88;6.47;;;;;;;;;;4959770;28;92580;-83
2023/06/05 08:41:13;;;;;;;15.57;6.13;;;;;;;;;;4951635;28;92270;-82
2023/06/05 08:43:41;;;;;;;10.65;6.18;;;;;;;;;;4953088;28;96061;-83
2023/06/05 08:46:11;;;;;;;7.97;6.20;;;;;;;;;;4950557;28;93391;-83
2023/06/05 08:48:42;;;;;;;10.35;7.03;;;;;;;;;;4960315;28;93827;-82
2023/06/05 08:51:13;;;;;;;9.80;6.20;;;;;;;;;;4954213;28;92265;-83
2023/06/05 08:53:41;;;;;;;10.25;7.35;;;;;;;;;;4953419;28;92781;-82
2023/06/05 08:56:08;;;;;;;11.10;6.20;;;;;;;;;;4945881;28;92492;-83
2023/06/05 08:58:35;;;;;;;8.65;6.38;;;;;;;;;;4939280;28;94849;-83
2023/06/05 09:01:02;;;;;;;9.23;6.65;;;;;;;;;;4960849;28;94846;-83
2023/06/05 09:03:29;;;;;;;10.65;6.65;;;;;;;;;;4961579;28;93009;-83
2023/06/05 09:05:55;;;;;;;8.43;6.20;;;;;;;;;;4965973;28;93807;-83
2023/06/05 09:08:32;;;;;;;10.85;6.15;;;;;;;;;;4964447;28;91942;-82
2023/06/05 09:11:18;;;;;;;8.27;5.95;;;;;;;;;;4962373;28;95895;-82
2023/06/05 09:13:45;;;;;;;10.55;6.18;;;;;;;;;;4967813;28;92687;-83
2023/06/05 09:16:12;;;;;;;8.13;5.53;;;;;;;;;;4970607;28;92444;-82
2023/06/05 09:18:55;;;;;;;13.75;6.43;;;;;;;;;;4969806;28;91753;-82
2023/06/05 09:21:28;;;;;;;9.02;5.00;;;;;;;;;;4974004;28;92202;-82
2023/06/05 09:24:18;;;;;;;9.10;5.53;;;;;;;;;;4968884;28;92453;-83
2023/06/05 09:26:46;;;;;;;13.18;5.65;;;;;;;;;;4954048;28;94637;-83
2023/06/05 09:29:13;;;;;;;6.00;4.55;;;;;;;;;;4947567;28;97097;-83
2023/06/05 09:31:42;;;;;;;6.43;5.28;;;;;;;;;;4959929;28;92048;-83
2023/06/05 09:34:08;;;;;;;10.65;5.13;;;;;;;;;;4958412;28;92287;-83
2023/06/05 09:36:44;;;;;;;7.10;5.47;;;;;;;;;;4956355;28;92386;-83
2023/06/05 09:39:18;;;;;;;8.20;6.00;;;;;;;;;;4956868;28;92364;-83
2023/06/05 09:41:51;;;;;;;8.85;5.10;;;;;;;;;;4938967;28;93531;-82
2023/06/05 09:44:20;;;;;;;8.38;5.28;;;;;;;;;;4963053;28;93787;-83
2023/06/05 09:46:54;;;;;;;8.07;5.28;;;;;;;;;;4952035;28;92433;-81
2023/06/05 09:49:24;;;;;;;12.73;5.10;;;;;;;;;;4948381;28;94977;-80
2023/06/05 09:51:51;;;;;;;10.07;5.63;;;;;;;;;;4954686;28;94470;-81
2023/06/05 09:54:19;;;;;;;10.32;4.72;;;;;;;;;;4948758;28;92277;-80
2023/06/05 09:57:05;;;;;;;8.95;4.70;;;;;;;;;;4953544;28;92901;-81
2023/06/05 09:59:33;;;;;;;8.05;4.78;;;;;;;;;;4940023;28;96080;-82
2023/06/05 10:02:01;;;;;;;8.15;4.50;;;;;;;;;;4934641;28;95528;-83
2023/06/05 10:04:29;;;;;;;9.98;4.45;;;;;;;;;;4954217;28;93568;-81
2023/06/05 10:07:00;;;;;;;5.13;4.00;;;;;;;;;;4946355;28;92941;-81
2023/06/05 10:09:28;;;;;;;9.43;4.50;;;;;;;;;;4948581;28;92724;-81
2023/06/05 10:11:55;;;;;;;7.90;4.97;;;;;;;;;;4942088;28;92556;-81
2023/06/05 10:14:22;;;;;;;8.43;4.40;;;;;;;;;;4935836;28;95606;-81
2023/06/05 10:16:50;;;;;;;5.57;4.50;;;;;;;;;;4955758;28;94743;-81
2023/06/05 10:19:18;;;;;;;9.85;4.78;;;;;;;;;;4953529;28;92455;-81
2023/06/05 10:21:49;;;;;;;11.82;5.13;;;;;;;;;;4959192;28;92989;-80
2023/06/05 10:24:21;;;;;;;7.90;4.73;;;;;;;;;;4958846;28;92655;-82
2023/06/05 10:26:47;;;;;;;;;;;;;;;;;;4963229;28;92480;-81
2023/06/05 10:29:33;;;;;;;11.18;4.63;;;;;;;;;;4959548;28;92486;-81
2023/06/05 10:32:05;;;;;;;5.05;4.18;;;;;;;;;;4969535;28;93283;-81
2023/06/05 10:34:47;;;;;;;5.93;4.63;;;;;;;;;;4963703;28;94102;-80
2023/06/05 10:37:30;;;;;;;11.35;5.20;;;;;;;;;;4963962;28;95048;-80
2023/06/05 10:39:57;;;;;;;4.13;3.72;;;;;;;;;;4960251;28;92273;-80
2023/06/05 10:42:26;;;;;;;5.35;4.63;;;;;;;;;;4954024;28;94880;-81
2023/06/05 10:44:54;;;;;;;8.55;4.45;;;;;;;;;;4958765;28;95524;-80
2023/06/05 10:47:33;;;;;;;4.72;4.15;;;;;;;;;;4956343;28;92436;-81
2023/06/05 10:50:15;;;;;;;8.02;3.65;;;;;;;;;;4958225;28;94278;-81
2023/06/05 10:52:43;;;;;;;5.85;4.03;;;;;;;;;;4957619;28;93066;-80
2023/06/05 10:55:11;;;;;;;4.53;3.80;;;;;;;;;;4953760;28;93229;-80
2023/06/05 10:57:55;;;;;;;8.68;3.72;;;;;;;;;;4956983;28;93038;-80
2023/06/05 11:00:22;;;;;;;8.73;3.92;;;;;;;;;;4961673;28;92387;-82
2023/06/05 11:02:48;;;;;;;4.00;3.22;;;;;;;;;;4962468;28;92346;-81
2023/06/05 11:05:15;;;;;;;16.30;4.22;;;;;;;;;;4958689;28;92352;-81
2023/06/05 11:07:45;;;;;;;8.10;3.63;;;;;;;;;;4960425;28;94931;-82
2023/06/05 11:10:21;;;;;;;6.13;3.55;;;;;;;;;;4957875;28;94993;-82
2023/06/05 11:12:51;;;;;;;12.88;3.90;;;;;;;;;;4959885;28;92068;-81
2023/06/05 11:15:30;;;;;;;4.93;3.60;;;;;;;;;;4962072;28;92389;-81
2023/06/05 11:18:18;;;;;;;5.03;3.70;;;;;;;;;;4955764;28;95125;-81
2023/06/05 11:20:45;;;;;;;4.93;3.63;;;;;;;;;;4955419;28;94056;-81
2023/06/05 11:23:12;;;;;;;6.57;3.00;;;;;;;;;;4954854;28;92713;-82
2023/06/05 11:25:38;;;;;;;11.88;3.58;;;;;;;;;;4963427;28;92811;-82
2023/06/05 11:28:07;;;;;;;6.72;3.72;;;;;;;;;;4960229;28;92154;-82
2023/06/05 11:30:43;;;;;;;4.10;3.42;;;;;;;;;;4960557;28;92791;-81
2023/06/05 11:33:16;;;;;;;5.33;3.20;;;;;;;;;;4949548;28;97545;-81
2023/06/05 11:35:44;;;;;;;8.05;3.78;;;;;;;;;;4952050;28;94695;-81
2023/06/05 11:38:12;;;;;;;6.07;3.38;;;;;;;;;;4952952;28;92280;-82
2023/06/05 11:40:40;;;;;;;11.55;3.85;;;;;;;;;;4952003;28;96009;-81
2023/06/05 11:43:07;;;;;;;4.20;3.17;;;;;;;;;;4952364;28;92430;-81
2023/06/05 11:45:35;;;;;;;4.90;2.72;;;;;;;;;;4953895;28;92948;-81
2023/06/05 11:48:09;;;;;;;8.93;3.10;;;;;;;;;;4952575;28;92591;-82
2023/06/05 11:50:36;;;;;;;6.03;3.70;;;;;;;;;;4951355;28;91784;-81
2023/06/05 11:53:06;;;;;;;8.77;3.78;;;;;;;;;;4958965;28;92459;-82
2023/06/05 11:55:43;;;;;;;6.75;3.78;;;;;;;;;;4955728;28;92547;-81
2023/06/05 11:58:10;;;;;;;8.90;3.08;;;;;;;;;;4956711;28;95041;-83
2023/06/05 12:00:37;;;;;;;5.63;3.03;;;;;;;;;;4952908;28;93337;-82
2023/06/05 12:03:04;;;;;;;4.32;3.38;;;;;;;;;;4949095;28;93357;-82
2023/06/05 12:05:31;;;;;;;14.77;4.03;;;;;;;;;;4933453;28;92782;-82
2023/06/05 12:07:58;;;;;;;12.18;3.85;;;;;;;;;;4958016;28;93283;-83
2023/06/05 12:10:32;;;;;;;13.63;3.72;;;;;;;;;;4944977;28;92498;-82
2023/06/05 12:12:59;;;;;;;6.25;3.95;;;;;;;;;;4948657;28;92402;-82
2023/06/05 12:15:27;;;;;;;8.73;3.58;;;;;;;;;;4952977;28;91979;-82
2023/06/05 12:17:55;;;;;;;5.63;3.38;;;;;;;;;;4955975;28;93848;-82
2023/06/05 12:20:21;;;;;;;6.15;4.20;;;;;;;;;;4954377;28;92371;-82
2023/06/05 12:22:48;;;;;;;10.68;3.80;;;;;;;;;;4938352;28;95763;-82
2023/06/05 12:25:21;;;;;;;5.63;3.60;;;;;;;;;;4949496;28;96952;-82
2023/06/05 12:27:48;;;;;;;6.05;3.75;;;;;;;;;;4947194;28;92593;-82
2023/06/05 12:30:18;;;;;;;5.38;3.58;;;;;;;;;;4957029;28;94829;-81
2023/06/05 12:32:45;;;;;;;7.65;4.13;;;;;;;;;;4950781;28;93008;-82
2023/06/05 12:35:19;;;;;;;8.82;3.95;;;;;;;;;;4951850;28;92267;-82
2023/06/05 12:37:47;;;;;;;5.85;4.25;;;;;;;;;;4946493;28;93488;-82
2023/06/05 12:40:14;;;;;;;4.93;3.90;;;;;;;;;;4955711;28;92357;-82
2023/06/05 12:42:55;;;;;;;3.23;3.03;;;;;;;;;;4951552;28;92539;-82
2023/06/05 12:45:22;;;;;;;5.45;3.80;;;;;;;;;;4953095;28;92529;-81
2023/06/05 12:47:48;;;;;;;5.60;3.65;;;;;;;;;;4946422;28;95668;-81
2023/06/05 12:50:15;;;;;;;8.85;3.60;;;;;;;;;;4958585;28;92944;-80
2023/06/05 12:52:42;;;;;;;4.95;3.83;;;;;;;;;;4955591;28;92555;-81
2023/06/05 12:55:09;;;;;;;6.43;4.13;;;;;;;;;;4952984;28;92287;-82
2023/06/05 12:57:36;;;;;;;13.48;3.92;;;;;;;;;;4960721;28;93114;-82
2023/06/05 13:00:13;;;;;;;6.35;3.47;;;;;;;;;;4949406;28;93246;-81
2023/06/05 13:02:44;;;;;;;9.57;3.70;;;;;;;;;;4959574;28;92175;-82
2023/06/05 13:05:11;;;;;;;10.60;4.43;;;;;;;;;;4958045;28;93035;-81
2023/06/05 13:07:39;;;;;;;9.23;3.85;;;;;;;;;;4952311;28;94194;-82
2023/06/05 13:10:06;;;;;;;6.13;3.60;;;;;;;;;;4959637;28;92420;-82
2023/06/05 13:12:33;;;;;;;4.95;3.33;;;;;;;;;;4959680;28;94666;-82
2023/06/05 13:15:03;;;;;;;6.55;3.83;;;;;;;;;;4960476;28;92473;-83
2023/06/05 13:17:33;;;;;;;5.03;3.45;;;;;;;;;;4956218;28;92390;-84
2023/06/05 13:20:00;;;;;;;4.35;3.95;;;;;;;;;;4948970;28;94655;-84
2023/06/05 13:22:26;;;;;;;4.05;3.58;;;;;;;;;;4959420;28;95727;-84
2023/06/05 13:24:53;;;;;;;8.68;3.35;;;;;;;;;;4948567;28;92550;-84
2023/06/05 13:27:20;;;;;;;4.18;3.78;;;;;;;;;;4960630;28;94330;-84
2023/06/05 13:29:47;;;;;;;4.18;3.25;;;;;;;;;;4926364;28;94806;-84
2023/06/05 13:32:14;;;;;;;4.38;3.42;;;;;;;;;;4940458;28;92371;-84
2023/06/05 13:34:41;;;;;;;8.63;3.80;;;;;;;;;;4942491;28;94909;-84
2023/06/05 13:37:07;;;;;;;5.80;3.55;;;;;;;;;;4959622;28;94675;-84
2023/06/05 13:39:40;;;;;;;6.22;3.83;;;;;;;;;;4955293;28;93931;-83
2023/06/05 13:42:07;;;;;;;5.22;3.75;;;;;;;;;;4948650;28;92453;-83
2023/06/05 13:44:34;;;;;;;8.32;3.53;;;;;;;;;;4958472;28;91957;-84
2023/06/05 13:47:03;;;;;;;4.68;3.45;;;;;;;;;;4934411;28;94191;-83
2023/06/05 13:49:30;;;;;;;5.25;3.40;;;;;;;;;;4954429;28;92852;-83
2023/06/05 13:51:57;;;;;;;5.45;3.30;;;;;;;;;;4948612;28;92518;-83
2023/06/05 13:54:24;;;;;;;4.88;3.58;;;;;;;;;;4947578;28;92850;-82
2023/06/05 13:56:53;;;;;;;10.85;3.33;;;;;;;;;;4945974;28;94452;-83
2023/06/05 13:59:20;;;;;;;11.43;3.90;;;;;;;;;;4945266;28;94995;-83
2023/06/05 14:01:46;;;;;;;7.03;3.58;;;;;;;;;;4961003;28;94645;-84
2023/06/05 14:04:13;;;;;;;5.05;3.35;;;;;;;;;;4957965;28;92358;-84
2023/06/05 14:06:41;;;;;;;6.57;3.05;;;;;;;;;;4951369;28;92264;-84
2023/06/05 14:09:08;;;;;;;7.85;3.30;;;;;;;;;;4957784;28;94786;-82
2023/06/05 14:11:36;;;;;;;5.55;3.25;;;;;;;;;;4958636;28;92333;-84
2023/06/05 14:14:06;;;;;;;8.00;3.20;;;;;;;;;;4949321;28;94568;-83
2023/06/05 14:16:33;;;;;;;6.40;3.30;;;;;;;;;;4939613;28;94689;-84
2023/06/05 14:19:00;;;;;;;8.05;3.28;;;;;;;;;;4946420;28;94183;-82
2023/06/05 14:21:26;;;;;;;5.20;3.17;;;;;;;;;;4955072;28;96176;-83
2023/06/05 14:23:53;;;;;;;3.65;3.00;;;;;;;;;;4952729;28;95071;-83
2023/06/05 14:26:21;;;;;;;5.50;3.65;;;;;;;;;;4956215;28;94759;-83
2023/06/05 14:28:48;;;;;;;7.80;3.13;;;;;;;;;;4950928;28;92470;-83
2023/06/05 14:31:14;;;;;;;5.25;3.50;;;;;;;;;;4957565;28;94019;-83
2023/06/05 14:33:41;;;;;;;7.55;3.25;;;;;;;;;;4956329;28;92237;-83
2023/06/05 14:36:08;;;;;;;6.22;3.65;;;;;;;;;;4950901;28;96304;-82
2023/06/05 14:38:35;;;;;;;4.55;3.20;;;;;;;;;;4939035;28;94253;-82
2023/06/05 14:41:02;;;;;;;4.93;3.15;;;;;;;;;;4956918;28;92984;-83
2023/06/05 14:43:29;;;;;;;3.50;3.20;;;;;;;;;;4958497;28;93305;-84
2023/06/05 14:45:56;;;;;;;10.95;3.33;;;;;;;;;;4962101;28;92077;-82